Time;durP1;ratioP1;P1;durP2;ratioP2;P2;SDS_P1;SDS_P2;PMS_P1;PMS_P2;Temp;Humidity;BMP_temperature;BMP_pressure;BME280_temperature;BME280_humidity;BME280_pressure;Samples;Min_cycle;Max_cycle;Signal;HPM_P1;HPM_P2
2021/12/20 00:00:54;;;;;;;9.68;7.00;;;5.30;99.90;;;;;;5021023;28;20223;-87
2021/12/20 00:03:20;;;;;;;9.40;7.30;;;5.30;99.90;;;;;;5034173;28;20186;-88
2021/12/20 00:05:46;;;;;;;10.60;7.57;;;5.30;99.90;;;;;;5032941;28;20206;-89
2021/12/20 00:08:12;;;;;;;12.47;7.40;;;5.30;99.90;;;;;;5027362;28;20179;-88
2021/12/20 00:10:37;;;;;;;9.83;7.10;;;5.30;99.90;;;;;;5030952;28;20246;-87
2021/12/20 00:13:03;;;;;;;8.67;6.80;;;5.30;99.90;;;;;;5015660;28;20470;-93
2021/12/20 00:15:29;;;;;;;8.27;6.22;;;5.30;99.90;;;;;;5020694;28;20442;-91
2021/12/20 00:17:55;;;;;;;8.57;6.80;;;5.30;99.90;;;;;;5027355;28;20176;-92
2021/12/20 00:20:21;;;;;;;6.83;6.13;;;5.30;99.90;;;;;;5025049;28;20707;-93
2021/12/20 00:22:47;;;;;;;8.07;7.20;;;5.30;99.90;;;;;;5014862;28;20614;-87
2021/12/20 00:25:13;;;;;;;8.88;6.90;;;5.30;99.90;;;;;;5013492;28;20572;-92
2021/12/20 00:27:39;;;;;;;9.10;6.80;;;5.30;99.90;;;;;;5013538;28;20751;-87
2021/12/20 00:30:07;;;;;;;7.53;6.03;;;5.30;99.90;;;;;;5014571;28;20227;-92
2021/12/20 00:32:33;;;;;;;8.75;6.38;;;5.30;99.90;;;;;;5014210;28;20426;-88
2021/12/20 00:34:59;;;;;;;7.07;5.97;;;5.30;99.90;;;;;;5014729;28;20227;-87
2021/12/20 00:40:22;;;;;;;7.55;6.70;;;5.30;99.90;;;;;;5014480;28;20213;-88
2021/12/20 00:43:01;;;;;;;8.15;5.63;;;5.30;99.90;;;;;;5014735;28;20179;-87
2021/12/20 00:45:33;;;;;;;8.40;6.60;;;5.20;99.90;;;;;;5014331;28;20217;-87
2021/12/20 00:47:59;;;;;;;7.45;5.53;;;5.20;99.90;;;;;;5014514;28;20171;-87
2021/12/20 00:50:26;;;;;;;9.10;7.40;;;5.20;99.90;;;;;;4994936;28;20734;-92
2021/12/20 00:52:53;;;;;;;6.97;5.80;;;5.20;99.90;;;;;;4993585;28;20198;-87
2021/12/20 00:55:21;;;;;;;9.15;6.75;;;5.20;99.90;;;;;;4977329;28;20204;-87
2021/12/20 00:57:49;;;;;;;7.45;6.63;;;5.20;99.90;;;;;;4996401;28;20172;-91
2021/12/20 01:00:21;;;;;;;8.85;6.80;;;5.20;99.90;;;;;;5009593;28;20255;-88
2021/12/20 01:02:46;;;;;;;6.30;5.65;;;5.20;99.90;;;;;;5012542;28;20191;-89
2021/12/20 01:05:13;;;;;;;6.90;5.60;;;5.20;99.90;;;;;;4980285;28;20262;-93
2021/12/20 01:07:39;;;;;;;8.63;6.10;;;5.20;99.90;;;;;;4977373;28;20175;-87
2021/12/20 01:10:08;;;;;;;7.30;5.97;;;5.20;99.90;;;;;;4977275;28;20235;-92
2021/12/20 01:12:45;;;;;;;9.23;5.80;;;5.20;99.90;;;;;;4978468;28;20208;-87
2021/12/20 01:15:15;;;;;;;9.27;6.40;;;5.20;99.90;;;;;;4978138;28;20238;-87
2021/12/20 01:17:41;;;;;;;6.40;5.63;;;5.20;99.90;;;;;;4996725;28;20187;-93
2021/12/20 01:20:09;;;;;;;7.40;5.60;;;5.20;99.90;;;;;;4999034;28;20199;-88
2021/12/20 01:22:34;;;;;;;7.40;5.78;;;5.20;99.90;;;;;;4980923;28;20421;-92
2021/12/20 01:25:00;;;;;;;6.97;5.50;;;5.20;99.90;;;;;;4981852;28;20191;-92
2021/12/20 01:27:26;;;;;;;6.47;5.15;;;5.20;99.90;;;;;;4996899;28;20187;-87
2021/12/20 01:29:52;;;;;;;8.80;6.07;;;5.20;99.90;;;;;;4980860;28;20685;-93
2021/12/20 01:32:18;;;;;;;7.73;5.90;;;5.20;99.90;;;;;;4981032;28;20199;-87
2021/12/20 01:34:43;;;;;;;8.93;6.20;;;5.20;99.90;;;;;;4981381;28;20180;-87
2021/12/20 01:37:09;;;;;;;8.67;6.27;;;5.20;99.90;;;;;;4982263;28;20191;-87
2021/12/20 01:39:35;;;;;;;8.70;5.27;;;5.20;99.90;;;;;;4983452;28;20187;-93
2021/12/20 01:42:03;;;;;;;6.30;5.40;;;5.20;99.90;;;;;;4980742;28;20190;-88
2021/12/20 01:44:30;;;;;;;7.60;5.70;;;5.20;99.90;;;;;;4980645;28;20180;-87
2021/12/20 01:46:57;;;;;;;7.32;5.50;;;5.20;99.90;;;;;;4980935;28;20191;-93
2021/12/20 01:49:23;;;;;;;7.22;5.72;;;5.20;99.90;;;;;;4998892;28;20305;-87
2021/12/20 01:54:24;;;;;;;6.60;5.05;;;5.20;99.90;;;;;;5017869;28;20190;-92
2021/12/20 01:56:50;;;;;;;8.30;5.87;;;5.20;99.90;;;;;;5016308;28;20203;-92
2021/12/20 01:59:15;;;;;;;8.70;5.50;;;5.20;99.90;;;;;;5016167;28;20261;-92
2021/12/20 02:01:43;;;;;;;7.10;5.67;;;5.20;99.90;;;;;;5017705;28;20440;-92
2021/12/20 02:04:10;;;;;;;8.35;6.07;;;5.20;99.90;;;;;;5016316;28;20186;-87
2021/12/20 02:06:40;;;;;;;6.90;5.20;;;5.20;99.90;;;;;;5016785;28;20206;-88
2021/12/20 02:09:11;;;;;;;7.10;5.35;;;5.20;99.90;;;;;;5016160;28;20259;-88
2021/12/20 02:11:39;;;;;;;8.65;5.88;;;5.20;99.90;;;;;;5016353;28;20554;-93
2021/12/20 02:14:07;;;;;;;7.25;5.47;;;5.20;99.90;;;;;;5015852;28;20273;-93
2021/12/20 02:16:34;;;;;;;8.20;5.57;;;5.20;99.90;;;;;;5016207;28;20202;-93
2021/12/20 02:19:05;;;;;;;6.85;5.38;;;5.20;99.90;;;;;;5017127;28;20662;-88
2021/12/20 02:21:32;;;;;;;6.60;5.05;;;5.20;99.90;;;;;;5015589;28;20974;-87
2021/12/20 02:23:58;;;;;;;7.47;5.70;;;5.20;99.90;;;;;;5015981;28;20179;-93
2021/12/20 02:26:24;;;;;;;6.78;4.60;;;5.20;99.90;;;;;;5015649;28;20208;-88
2021/12/20 02:28:53;;;;;;;7.32;5.22;;;5.20;99.90;;;;;;5016116;28;20175;-87
2021/12/20 02:37:03;;;;;;;5.43;4.90;;;5.20;99.90;;;;;;5017252;28;20275;-92
2021/12/20 02:39:30;;;;;;;6.70;4.85;;;5.20;99.90;;;;;;5019599;28;20184;-92
2021/12/20 02:41:55;;;;;;;6.20;5.15;;;5.20;99.90;;;;;;5036216;28;20175;-87
2021/12/20 02:44:24;;;;;;;6.00;5.13;;;5.20;99.90;;;;;;5031837;28;20199;-92
2021/12/20 02:47:03;;;;;;;5.55;4.68;;;5.20;99.90;;;;;;5027913;28;20199;-92
2021/12/20 02:49:30;;;;;;;6.00;5.15;;;5.20;99.90;;;;;;5035799;28;20230;-87
2021/12/20 02:52:06;;;;;;;5.75;5.10;;;5.20;99.90;;;;;;5015470;28;20179;-87
2021/12/20 02:54:33;;;;;;;7.28;4.95;;;5.20;99.90;;;;;;5015496;28;20187;-87
2021/12/20 02:56:58;;;;;;;5.32;4.32;;;5.30;99.90;;;;;;5016312;28;20179;-87
2021/12/20 02:59:24;;;;;;;5.27;4.60;;;5.30;99.90;;;;;;5014788;28;20666;-88
2021/12/20 03:01:57;;;;;;;5.50;4.97;;;5.30;99.90;;;;;;5016423;28;20562;-87
2021/12/20 03:04:23;;;;;;;5.90;4.78;;;5.30;99.90;;;;;;5015002;28;20415;-92
2021/12/20 03:06:56;;;;;;;5.50;4.55;;;5.40;99.90;;;;;;5014963;28;20195;-86
2021/12/20 03:09:30;;;;;;;5.95;4.88;;;5.40;99.90;;;;;;5015785;28;20261;-93
2021/12/20 03:11:59;;;;;;;5.80;4.68;;;5.40;99.90;;;;;;5015075;28;20167;-93
2021/12/20 03:14:31;;;;;;;5.25;4.72;;;5.40;99.90;;;;;;5014853;28;20663;-92
2021/12/20 03:16:57;;;;;;;5.18;4.57;;;5.50;99.90;;;;;;5016030;28;20179;-93
2021/12/20 03:19:25;;;;;;;5.57;5.05;;;5.50;99.90;;;;;;5015354;28;20238;-87
2021/12/20 03:21:51;;;;;;;8.75;4.40;;;5.50;99.90;;;;;;5016209;28;20175;-87
2021/12/20 03:24:17;;;;;;;6.13;4.65;;;5.50;99.90;;;;;;5014597;28;20249;-92
2021/12/20 03:26:43;;;;;;;7.63;3.70;;;5.50;99.90;;;;;;5014310;28;20196;-94
2021/12/20 03:29:09;;;;;;;5.75;4.85;;;5.50;99.90;;;;;;5014598;28;20759;-88
2021/12/20 03:31:34;;;;;;;5.00;4.20;;;5.60;99.90;;;;;;5014676;28;20287;-92
2021/12/20 03:34:01;;;;;;;5.20;4.30;;;5.60;99.90;;;;;;5015329;28;20233;-93
2021/12/20 03:36:26;;;;;;;4.35;3.80;;;5.60;99.90;;;;;;5015593;28;20951;-87
2021/12/20 03:38:53;;;;;;;5.00;4.37;;;5.60;99.90;;;;;;5015592;28;20183;-91
2021/12/20 03:41:19;;;;;;;4.80;4.22;;;5.60;99.90;;;;;;5023410;28;20443;-92
2021/12/20 03:43:45;;;;;;;4.50;3.90;;;5.70;99.90;;;;;;5016536;28;20670;-87
2021/12/20 03:46:10;;;;;;;5.60;3.83;;;5.70;99.90;;;;;;5020039;28;20282;-89
2021/12/20 03:48:36;;;;;;;5.10;3.90;;;5.70;99.90;;;;;;5016571;28;20541;-95
2021/12/20 03:51:04;;;;;;;3.93;3.60;;;5.70;99.90;;;;;;5013989;28;20949;-88
2021/12/20 03:53:33;;;;;;;3.90;3.53;;;5.70;99.90;;;;;;5014220;28;20395;-88
2021/12/20 03:55:58;;;;;;;5.35;3.97;;;5.70;99.90;;;;;;5013874;28;20281;-94
2021/12/20 03:58:28;;;;;;;4.50;3.80;;;5.70;99.90;;;;;;5015143;28;20218;-94
2021/12/20 04:00:56;;;;;;;4.95;4.30;;;5.70;99.90;;;;;;5015755;28;20199;-94
2021/12/20 04:03:22;;;;;;;3.75;3.45;;;5.80;99.90;;;;;;5013749;28;20187;-87
2021/12/20 04:05:48;;;;;;;3.83;3.53;;;5.70;99.90;;;;;;5013713;28;20210;-87
2021/12/20 04:08:14;;;;;;;4.93;4.43;;;5.80;99.90;;;;;;5014940;28;20183;-87
2021/12/20 04:10:40;;;;;;;4.75;4.22;;;5.80;99.90;;;;;;5014576;28;20447;-87
2021/12/20 04:13:09;;;;;;;4.10;3.60;;;5.80;99.90;;;;;;5015104;28;20639;-93
2021/12/20 04:15:35;;;;;;;5.30;4.22;;;5.80;99.90;;;;;;5019724;28;21023;-94
2021/12/20 04:18:00;;;;;;;4.57;3.88;;;5.80;99.90;;;;;;5014910;28;20210;-86
2021/12/20 04:20:26;;;;;;;4.10;3.47;;;5.80;99.90;;;;;;5013552;28;20253;-88
2021/12/20 04:22:52;;;;;;;7.70;3.70;;;5.80;99.90;;;;;;5014771;28;20171;-93
2021/12/20 04:25:18;;;;;;;5.07;3.80;;;5.80;99.90;;;;;;5013913;28;20219;-94
2021/12/20 04:27:43;;;;;;;4.17;3.77;;;5.80;99.90;;;;;;5019570;28;20175;-93
2021/12/20 04:30:10;;;;;;;4.67;3.80;;;5.80;99.90;;;;;;5013769;28;20627;-94
2021/12/20 04:32:42;;;;;;;3.90;3.50;;;5.80;99.90;;;;;;5015840;28;20226;-88
2021/12/20 04:35:09;;;;;;;3.97;3.58;;;5.80;99.90;;;;;;5024014;28;20226;-87
2021/12/20 04:37:36;;;;;;;5.13;4.20;;;5.80;99.90;;;;;;5027743;28;20217;-89
2021/12/20 04:40:07;;;;;;;3.58;3.28;;;5.80;99.90;;;;;;5020310;28;20253;-88
2021/12/20 04:42:32;;;;;;;4.47;3.78;;;5.70;99.90;;;;;;5014140;28;20283;-94
2021/12/20 04:44:58;;;;;;;5.80;3.40;;;5.70;99.90;;;;;;5015068;28;20237;-94
2021/12/20 04:47:24;;;;;;;4.03;3.63;;;5.70;99.90;;;;;;5013444;28;20270;-92
2021/12/20 04:49:50;;;;;;;5.97;4.37;;;5.70;99.90;;;;;;5014066;28;20239;-87
2021/12/20 04:52:15;;;;;;;3.50;3.20;;;5.70;99.90;;;;;;5034207;28;20886;-92
2021/12/20 04:54:41;;;;;;;5.37;3.67;;;5.70;99.90;;;;;;5023908;28;20201;-92
2021/12/20 04:57:08;;;;;;;4.60;3.70;;;5.70;99.90;;;;;;5038970;28;20175;-93
2021/12/20 04:59:34;;;;;;;6.30;3.63;;;5.60;99.90;;;;;;5022599;28;20592;-88
2021/12/20 05:02:00;;;;;;;4.73;3.73;;;5.60;99.90;;;;;;5021331;28;20166;-93
2021/12/20 05:04:25;;;;;;;3.37;3.00;;;5.60;99.90;;;;;;5038674;28;20179;-93
2021/12/20 05:06:51;;;;;;;4.70;3.43;;;5.50;99.90;;;;;;5054815;28;20473;-86
2021/12/20 05:09:18;;;;;;;4.30;3.50;;;5.60;99.90;;;;;;5025698;28;20222;-87
2021/12/20 05:11:50;;;;;;;4.20;3.80;;;5.90;99.90;;;;;;5043397;28;20478;-94
2021/12/20 05:14:17;;;;;;;4.50;3.45;;;6.00;99.90;;;;;;5020771;28;20187;-94
2021/12/20 05:16:43;;;;;;;3.55;2.92;;;6.10;99.90;;;;;;5020208;28;20198;-94
2021/12/20 05:19:09;;;;;;;3.50;3.20;;;6.10;99.90;;;;;;5024684;28;20182;-94
2021/12/20 05:21:34;;;;;;;3.40;2.53;;;6.30;99.90;;;;;;5047737;28;20191;-88
2021/12/20 05:24:00;;;;;;;4.33;3.60;;;6.40;99.90;;;;;;5050574;28;20182;-94
2021/12/20 05:26:27;;;;;;;3.10;2.80;;;6.50;99.90;;;;;;5029024;28;20198;-93
2021/12/20 05:28:54;;;;;;;3.75;3.30;;;6.60;99.90;;;;;;5018825;28;20186;-88
2021/12/20 05:31:21;;;;;;;2.17;2.08;;;6.80;99.90;;;;;;5014366;28;20198;-87
2021/12/20 05:33:46;;;;;;;4.45;3.35;;;6.90;99.90;;;;;;5035918;28;20182;-88
2021/12/20 05:36:12;;;;;;;4.40;4.00;;;7.00;99.90;;;;;;5042393;28;20256;-88
2021/12/20 05:38:38;;;;;;;3.20;2.90;;;6.70;99.90;;;;;;5017792;28;20190;-88
2021/12/20 05:41:04;;;;;;;4.03;3.37;;;6.50;99.90;;;;;;5019172;28;20206;-94
2021/12/20 05:43:29;;;;;;;4.07;3.63;;;6.20;99.90;;;;;;4998766;28;20199;-93
2021/12/20 05:45:55;;;;;;;3.80;3.40;;;6.00;99.90;;;;;;5018641;28;20202;-88
2021/12/20 05:48:21;;;;;;;3.37;2.70;;;5.80;99.90;;;;;;5036880;28;20544;-87
2021/12/20 05:50:47;;;;;;;4.60;3.63;;;5.60;99.90;;;;;;5005020;28;20222;-94
2021/12/20 05:53:12;;;;;;;3.60;2.97;;;5.40;99.90;;;;;;5014308;28;20200;-94
2021/12/20 05:55:38;;;;;;;3.43;3.13;;;5.30;99.90;;;;;;5034573;28;20198;-87
2021/12/20 05:58:04;;;;;;;4.90;2.87;;;5.20;99.90;;;;;;5006391;28;20202;-88
2021/12/20 06:00:29;;;;;;;3.53;3.23;;;5.10;99.90;;;;;;5022136;28;20234;-87
2021/12/20 06:02:55;;;;;;;4.10;3.07;;;5.00;99.90;;;;;;5035471;28;20232;-88
2021/12/20 06:05:21;;;;;;;4.07;3.63;;;4.90;99.90;;;;;;5014476;28;20205;-94
2021/12/20 06:07:48;;;;;;;3.20;2.50;;;4.80;99.90;;;;;;5020269;28;20573;-94
2021/12/20 06:10:16;;;;;;;3.53;3.20;;;4.70;99.90;;;;;;5005196;28;20215;-87
2021/12/20 06:12:43;;;;;;;4.30;3.05;;;4.70;99.90;;;;;;5048427;28;20269;-93
2021/12/20 06:15:11;;;;;;;7.18;4.40;;;4.60;99.90;;;;;;5034939;28;20202;-88
2021/12/20 06:17:37;;;;;;;4.22;3.83;;;4.60;99.90;;;;;;5038446;28;20189;-90
2021/12/20 06:20:07;;;;;;;3.47;2.70;;;4.50;99.90;;;;;;5044323;28;20214;-93
2021/12/20 06:22:33;;;;;;;2.80;2.33;;;4.50;99.90;;;;;;5019398;28;20511;-94
2021/12/20 06:24:59;;;;;;;2.90;2.50;;;4.40;99.90;;;;;;5012114;28;20215;-94
2021/12/20 06:27:25;;;;;;;2.83;2.58;;;4.40;99.90;;;;;;5018031;28;20175;-93
2021/12/20 06:29:51;;;;;;;9.53;4.73;;;4.30;99.90;;;;;;5019821;28;20228;-92
2021/12/20 06:32:17;;;;;;;6.60;5.90;;;4.30;99.90;;;;;;5024260;28;20181;-91
2021/12/20 06:34:42;;;;;;;4.00;3.60;;;4.30;99.90;;;;;;5020281;28;20198;-94
2021/12/20 06:37:08;;;;;;;3.80;3.50;;;4.30;99.90;;;;;;5032664;28;20647;-93
2021/12/20 06:39:34;;;;;;;3.23;2.90;;;4.30;99.90;;;;;;5034466;28;20186;-88
2021/12/20 06:41:59;;;;;;;3.27;2.63;;;4.30;99.90;;;;;;5016224;28;20409;-86
2021/12/20 06:44:25;;;;;;;3.40;3.10;;;4.20;99.90;;;;;;5013221;28;20187;-94
2021/12/20 06:46:52;;;;;;;3.65;3.35;;;4.20;99.90;;;;;;5040318;28;20378;-87
2021/12/20 06:49:18;;;;;;;7.43;4.85;;;4.20;99.90;;;;;;5013641;28;20249;-90
2021/12/20 06:51:44;;;;;;;7.20;3.67;;;4.10;99.90;;;;;;5035945;28;20210;-87
2021/12/20 06:54:14;;;;;;;4.90;3.75;;;4.10;99.90;;;;;;5034397;28;20190;-86
2021/12/20 06:56:41;;;;;;;6.03;3.95;;;4.10;99.90;;;;;;5020571;28;20190;-87
2021/12/20 06:59:07;;;;;;;6.28;3.65;;;4.00;99.90;;;;;;5015928;28;20191;-95
2021/12/20 07:01:32;;;;;;;5.15;4.40;;;4.00;99.90;;;;;;5036423;28;20683;-94
2021/12/20 07:03:58;;;;;;;5.53;3.73;;;4.00;99.90;;;;;;5035337;28;20189;-93
2021/12/20 07:06:24;;;;;;;6.67;4.63;;;4.00;99.90;;;;;;5014449;28;20224;-88
2021/12/20 07:08:50;;;;;;;6.40;4.60;;;4.00;99.90;;;;;;5037996;28;20179;-93
2021/12/20 07:11:17;;;;;;;5.60;4.43;;;3.90;99.90;;;;;;5023590;28;20447;-90
2021/12/20 07:13:43;;;;;;;4.53;4.13;;;3.90;99.90;;;;;;5022080;28;20187;-87
2021/12/20 07:16:09;;;;;;;4.80;4.27;;;3.90;99.90;;;;;;5026234;28;20793;-87
2021/12/20 07:18:35;;;;;;;16.90;9.33;;;3.90;99.90;;;;;;5017079;28;20190;-86
2021/12/20 07:21:02;;;;;;;6.50;5.35;;;3.90;99.90;;;;;;5016541;28;20208;-92
2021/12/20 07:23:27;;;;;;;7.28;5.45;;;3.90;99.90;;;;;;5033942;28;20189;-87
2021/12/20 07:25:53;;;;;;;5.63;4.93;;;3.90;99.90;;;;;;5034980;28;20194;-86
2021/12/20 07:28:19;;;;;;;10.23;9.20;;;3.90;99.90;;;;;;5007441;28;20198;-86
2021/12/20 07:30:46;;;;;;;14.10;9.73;;;3.90;99.90;;;;;;5026764;28;20691;-86
2021/12/20 07:33:12;;;;;;;7.63;5.75;;;3.90;99.90;;;;;;5013754;28;20205;-91
2021/12/20 07:35:38;;;;;;;12.33;5.67;;;3.90;99.90;;;;;;5014881;28;20289;-86
2021/12/20 07:38:05;;;;;;;6.33;4.80;;;4.00;99.90;;;;;;5015819;28;20406;-93
2021/12/20 07:40:31;;;;;;;9.23;5.78;;;4.30;99.90;;;;;;5010821;28;20822;-93
2021/12/20 07:42:57;;;;;;;6.10;3.80;;;4.70;99.90;;;;;;5011908;28;20198;-87
2021/12/20 07:45:23;;;;;;;5.77;3.57;;;5.10;99.90;;;;;;5013717;28;20436;-93
2021/12/20 07:47:50;;;;;;;5.87;4.80;;;5.60;99.90;;;;;;5030212;28;20186;-92
2021/12/20 07:50:18;;;;;;;4.53;3.70;;;6.10;99.90;;;;;;5043535;28;20482;-92
2021/12/20 07:52:44;;;;;;;5.90;3.50;;;6.80;99.90;;;;;;5037154;28;20175;-93
2021/12/20 07:55:10;;;;;;;6.63;3.70;;;7.40;99.90;;;;;;5012097;28;20237;-87
2021/12/20 07:57:37;;;;;;;5.07;4.05;;;8.10;99.90;;;;;;5012778;28;20178;-87
2021/12/20 08:00:06;;;;;;;6.93;5.53;;;8.80;99.90;;;;;;5012174;28;20215;-94
2021/12/20 08:02:32;;;;;;;5.35;3.70;;;9.50;99.90;;;;;;5010908;28;20213;-86
2021/12/20 08:04:57;;;;;;;5.60;4.30;;;10.10;99.90;;;;;;5013585;28;20210;-87
2021/12/20 08:07:23;;;;;;;4.00;3.60;;;10.60;99.90;;;;;;5013494;28;20269;-93
2021/12/20 08:09:50;;;;;;;4.07;3.50;;;11.00;99.90;;;;;;5034497;28;20217;-86
2021/12/20 08:12:18;;;;;;;5.88;3.65;;;11.30;99.90;;;;;;5011609;28;20217;-88
2021/12/20 08:14:44;;;;;;;6.53;4.28;;;11.50;99.90;;;;;;5017392;28;20196;-93
2021/12/20 08:17:10;;;;;;;4.20;3.60;;;11.70;99.90;;;;;;5017896;28;20179;-92
2021/12/20 08:19:35;;;;;;;3.63;3.20;;;11.80;99.90;;;;;;5030778;28;20198;-87
2021/12/20 08:22:01;;;;;;;5.13;3.80;;;11.90;99.90;;;;;;5022056;28;20306;-88
2021/12/20 08:24:27;;;;;;;4.32;3.50;;;11.90;99.90;;;;;;5015114;28;20619;-93
2021/12/20 08:26:53;;;;;;;3.30;3.00;;;11.80;99.90;;;;;;5029425;28;20265;-87
2021/12/20 08:29:18;;;;;;;4.90;4.03;;;11.60;99.90;;;;;;5015109;28;20225;-87
2021/12/20 08:31:44;;;;;;;4.70;3.57;;;11.30;99.90;;;;;;5008904;28;20253;-87
2021/12/20 08:34:10;;;;;;;4.33;3.93;;;11.00;99.90;;;;;;5010840;28;20501;-93
2021/12/20 08:36:36;;;;;;;5.50;3.60;;;10.70;99.90;;;;;;5022782;28;20741;-87
2021/12/20 08:39:02;;;;;;;5.72;4.10;;;10.60;99.90;;;;;;5015764;28;20241;-94
2021/12/20 08:41:28;;;;;;;4.80;3.63;;;10.50;99.90;;;;;;5030398;28;20641;-87
2021/12/20 08:43:54;;;;;;;4.93;3.70;;;10.70;99.90;;;;;;5009978;28;20506;-93
2021/12/20 08:46:20;;;;;;;4.83;3.10;;;11.00;99.90;;;;;;5019819;28;20205;-93
2021/12/20 08:48:48;;;;;;;3.77;3.00;;;11.30;99.90;;;;;;5014763;28;20245;-94
2021/12/20 08:51:14;;;;;;;4.72;3.03;;;11.70;99.90;;;;;;5021658;28;20213;-93
2021/12/20 08:53:43;;;;;;;6.95;2.70;;;12.10;99.90;;;;;;5032115;28;20187;-87
2021/12/20 08:56:08;;;;;;;7.07;5.75;;;12.60;99.90;;;;;;5013344;28;20198;-87
2021/12/20 08:58:34;;;;;;;5.40;4.10;;;12.90;99.50;;;;;;5031404;28;20197;-93
2021/12/20 09:01:01;;;;;;;25.87;13.80;;;13.10;98.90;;;;;;5029914;28;20426;-94
2021/12/20 09:03:28;;;;;;;5.03;3.47;;;13.30;98.10;;;;;;5030545;28;20768;-94
2021/12/20 09:05:54;;;;;;;15.50;11.10;;;13.50;96.60;;;;;;5024898;28;20451;-94
2021/12/20 09:08:22;;;;;;;8.63;6.85;;;13.60;96.40;;;;;;5014888;28;20948;-87
2021/12/20 09:10:49;;;;;;;4.37;3.77;;;13.70;96.10;;;;;;5011927;28;20218;-93
2021/12/20 09:13:15;;;;;;;3.20;2.70;;;13.70;94.80;;;;;;5005006;28;20447;-87
2021/12/20 09:15:41;;;;;;;4.60;4.30;;;13.70;95.00;;;;;;5022448;28;20462;-94
2021/12/20 09:18:08;;;;;;;11.70;7.63;;;13.80;94.50;;;;;;5007571;28;20463;-86
2021/12/20 09:20:36;;;;;;;9.17;6.83;;;14.00;94.30;;;;;;5013403;28;20455;-87
2021/12/20 09:23:07;;;;;;;5.73;4.80;;;14.30;93.80;;;;;;5015017;28;20434;-94
2021/12/20 09:25:35;;;;;;;5.00;4.50;;;14.60;92.40;;;;;;5018695;28;20855;-87
2021/12/20 09:28:03;;;;;;;5.07;4.37;;;14.80;91.80;;;;;;5024693;28;20443;-93
2021/12/20 09:30:31;;;;;;;4.93;4.33;;;14.90;91.80;;;;;;5007804;28;20471;-87
2021/12/20 09:32:57;;;;;;;4.13;3.27;;;15.10;91.20;;;;;;5030412;28;20459;-86
2021/12/20 09:35:24;;;;;;;5.00;4.23;;;15.20;89.60;;;;;;5011673;28;20418;-87
2021/12/20 09:37:51;;;;;;;5.53;3.07;;;15.10;88.60;;;;;;5031926;28;20419;-94
2021/12/20 09:40:27;;;;;;;4.63;3.63;;;14.70;88.80;;;;;;5025421;28;21191;-86
2021/12/20 09:42:54;;;;;;;3.27;2.33;;;14.30;90.20;;;;;;5021360;28;20404;-95
2021/12/20 09:45:21;;;;;;;10.43;7.00;;;14.10;89.40;;;;;;5022708;28;20447;-87
2021/12/20 09:47:49;;;;;;;32.10;18.30;;;13.90;90.40;;;;;;5032316;28;20473;-93
2021/12/20 09:50:15;;;;;;;21.20;13.90;;;14.00;90.40;;;;;;5014502;28;20468;-94
2021/12/20 09:52:45;;;;;;;4.50;3.30;;;14.10;90.00;;;;;;5016144;28;20425;-93
2021/12/20 09:55:14;;;;;;;3.67;2.57;;;14.10;88.80;;;;;;5026820;28;20455;-93
2021/12/20 09:57:41;;;;;;;4.57;2.67;;;14.10;87.60;;;;;;5012871;28;21055;-93
2021/12/20 10:00:10;;;;;;;3.70;2.70;;;13.90;87.80;;;;;;5013455;28;20787;-87
2021/12/20 10:02:36;;;;;;;2.90;2.27;;;13.60;88.50;;;;;;5027724;28;20420;-93
2021/12/20 10:05:02;;;;;;;3.33;2.00;;;13.40;89.70;;;;;;5013089;28;20448;-87
2021/12/20 10:07:29;;;;;;;3.17;2.20;;;13.20;89.60;;;;;;5031729;28;20222;-87
2021/12/20 10:09:55;;;;;;;11.93;9.60;;;13.00;90.30;;;;;;5009085;28;20458;-93
2021/12/20 10:12:27;;;;;;;14.53;10.67;;;12.80;89.50;;;;;;5033249;28;20412;-87
2021/12/20 10:15:12;;;;;;;5.93;4.65;;;12.60;89.90;;;;;;5032289;28;20839;-86
2021/12/20 10:17:53;;;;;;;2.95;2.70;;;12.40;90.30;;;;;;5012959;28;20174;-94
2021/12/20 10:20:23;;;;;;;5.10;2.90;;;12.20;90.40;;;;;;5016828;28;20203;-93
2021/12/20 10:22:53;;;;;;;2.30;1.90;;;12.10;90.60;;;;;;5019664;28;20439;-87
2021/12/20 10:25:22;;;;;;;2.73;1.93;;;12.00;90.20;;;;;;5008260;28;20207;-94
2021/12/20 10:27:47;;;;;;;3.50;2.72;;;11.80;90.20;;;;;;5019086;28;20935;-93
2021/12/20 10:30:31;;;;;;;2.60;2.40;;;11.70;90.70;;;;;;5035201;28;20225;-87
2021/12/20 10:32:58;;;;;;;3.15;2.85;;;11.60;90.50;;;;;;5030616;28;20928;-92
2021/12/20 10:35:27;;;;;;;5.47;3.42;;;11.40;91.20;;;;;;5016814;28;20281;-93
2021/12/20 10:37:59;;;;;;;5.65;2.75;;;11.30;91.00;;;;;;5012224;28;20568;-93
2021/12/20 10:40:26;;;;;;;5.40;3.00;;;11.10;90.80;;;;;;5027246;28;20544;-87
2021/12/20 10:42:56;;;;;;;3.17;2.22;;;10.90;91.30;;;;;;5044194;28;20191;-87
2021/12/20 10:45:25;;;;;;;2.80;2.15;;;10.60;91.00;;;;;;5029378;28;20245;-92
2021/12/20 10:47:51;;;;;;;2.47;2.28;;;10.40;91.80;;;;;;5032039;28;20260;-87
2021/12/20 10:50:25;;;;;;;3.07;2.30;;;10.30;92.10;;;;;;5004116;28;20239;-93
2021/12/20 10:52:53;;;;;;;2.60;2.40;;;10.10;91.70;;;;;;5008086;28;20402;-91
2021/12/20 10:55:43;;;;;;;2.83;2.30;;;10.00;92.10;;;;;;4988581;28;20195;-87
2021/12/20 10:58:38;;;;;;;3.85;2.72;;;9.80;92.40;;;;;;4992766;28;20286;-93
2021/12/20 11:01:14;;;;;;;3.88;2.20;;;9.70;92.70;;;;;;5020973;28;20237;-94
2021/12/20 11:03:41;;;;;;;3.88;2.47;;;9.60;92.90;;;;;;4996858;28;20561;-87
2021/12/20 11:06:24;;;;;;;2.72;2.40;;;9.40;92.90;;;;;;4996555;28;20283;-92
2021/12/20 11:09:08;;;;;;;2.80;2.25;;;9.30;92.60;;;;;;4992584;28;20187;-93
2021/12/20 11:11:41;;;;;;;3.55;2.70;;;9.10;92.90;;;;;;4997600;28;20751;-87
2021/12/20 11:14:09;;;;;;;3.30;2.00;;;9.00;93.30;;;;;;5002959;28;20188;-88
2021/12/20 11:16:46;;;;;;;5.47;3.17;;;8.90;93.00;;;;;;5019165;28;20195;-87
2021/12/20 11:19:19;;;;;;;3.38;2.20;;;8.80;93.20;;;;;;4998984;28;20293;-93
2021/12/20 11:21:57;;;;;;;2.42;2.22;;;8.70;93.20;;;;;;4994934;28;20207;-88
2021/12/20 11:24:30;;;;;;;3.78;2.28;;;8.70;93.60;;;;;;5005821;28;20244;-87
2021/12/20 11:26:57;;;;;;;19.35;12.15;;;8.60;93.70;;;;;;5013788;28;20659;-87
2021/12/20 11:29:24;;;;;;;9.07;6.25;;;8.60;94.10;;;;;;5010082;28;20219;-91
2021/12/20 11:31:52;;;;;;;24.48;13.75;;;8.50;93.50;;;;;;5015627;28;20191;-86
2021/12/20 11:34:18;;;;;;;7.85;5.60;;;8.50;94.20;;;;;;5008768;28;20263;-87
2021/12/20 11:36:45;;;;;;;13.85;8.38;;;8.50;94.10;;;;;;4999941;28;20286;-85
2021/12/20 11:39:11;;;;;;;6.70;5.70;;;8.50;94.10;;;;;;4998894;28;20198;-87
2021/12/20 11:41:37;;;;;;;4.57;3.80;;;8.50;93.80;;;;;;4992568;28;20191;-87
2021/12/20 11:44:05;;;;;;;6.50;4.22;;;8.50;93.90;;;;;;5005911;28;20257;-92
2021/12/20 11:47:00;;;;;;;5.60;3.28;;;8.50;93.50;;;;;;5013383;28;20261;-87
2021/12/20 11:49:27;;;;;;;3.95;2.95;;;8.50;94.10;;;;;;5017437;28;20242;-87
2021/12/20 11:52:07;;;;;;;3.80;3.03;;;8.60;94.10;;;;;;5005789;28;20183;-86
2021/12/20 11:54:42;;;;;;;4.25;3.63;;;8.60;94.20;;;;;;5011350;28;20190;-87
2021/12/20 11:57:42;;;;;;;7.15;5.25;;;8.70;94.10;;;;;;5014508;28;20647;-87
2021/12/20 12:00:19;;;;;;;10.68;6.82;;;8.70;94.10;;;;;;5013303;28;20221;-91
2021/12/20 12:02:47;;;;;;;7.85;4.85;;;8.70;94.50;;;;;;5011893;28;20551;-87
2021/12/20 12:05:17;;;;;;;5.35;3.80;;;8.70;93.80;;;;;;5010991;28;20206;-87
2021/12/20 12:07:45;;;;;;;5.60;3.67;;;8.80;94.90;;;;;;5011015;28;20248;-87
2021/12/20 12:10:17;;;;;;;2.92;2.50;;;8.80;93.80;;;;;;5032352;28;20241;-86
2021/12/20 12:12:46;;;;;;;4.00;3.58;;;8.80;94.00;;;;;;5013285;28;20277;-92
2021/12/20 12:15:16;;;;;;;3.67;2.90;;;8.80;94.00;;;;;;5031929;28;20202;-92
2021/12/20 12:18:04;;;;;;;4.75;2.88;;;8.70;94.00;;;;;;5017011;28;20237;-88
2021/12/20 12:20:47;;;;;;;2.90;2.13;;;8.80;94.00;;;;;;5040975;28;20218;-92
2021/12/20 12:23:26;;;;;;;5.78;4.90;;;8.70;93.80;;;;;;5023738;28;20220;-88
2021/12/20 12:25:57;;;;;;;5.35;4.45;;;8.70;93.80;;;;;;5032803;28;20210;-93
2021/12/20 12:28:27;;;;;;;5.80;3.22;;;8.70;94.00;;;;;;5012206;28;20178;-86
2021/12/20 12:31:06;;;;;;;8.57;4.93;;;8.60;93.70;;;;;;5009593;28;20718;-88
2021/12/20 12:33:38;;;;;;;5.78;3.42;;;8.50;93.90;;;;;;5039263;28;20190;-87
2021/12/20 12:36:10;;;;;;;2.13;2.03;;;8.40;93.80;;;;;;5012016;28;20210;-87
2021/12/20 12:38:47;;;;;;;6.43;4.20;;;8.40;93.90;;;;;;5009047;28;20534;-87
2021/12/20 12:41:31;;;;;;;4.90;3.80;;;8.30;94.10;;;;;;5025985;28;20202;-87
2021/12/20 12:44:05;;;;;;;7.40;6.07;;;8.20;94.30;;;;;;5044129;28;20186;-87
2021/12/20 12:46:43;;;;;;;3.08;2.78;;;8.20;94.40;;;;;;5012146;28;20280;-91
2021/12/20 12:49:21;;;;;;;2.75;2.00;;;8.20;94.30;;;;;;5024968;28;20594;-86
2021/12/20 12:51:56;;;;;;;3.10;2.60;;;8.10;94.10;;;;;;5012744;28;20211;-87
2021/12/20 12:54:39;;;;;;;5.18;3.90;;;8.10;94.30;;;;;;5040890;28;20682;-86
2021/12/20 12:57:10;;;;;;;4.43;3.25;;;8.00;94.60;;;;;;5014848;28;20186;-87
2021/12/20 13:00:00;;;;;;;4.90;4.00;;;8.00;94.60;;;;;;5030094;28;20508;-88
2021/12/20 13:02:29;;;;;;;4.10;3.70;;;8.10;95.00;;;;;;5013244;28;20223;-93
2021/12/20 13:04:57;;;;;;;2.40;2.20;;;8.10;94.80;;;;;;5010202;28;20344;-92
2021/12/20 13:07:28;;;;;;;3.33;2.15;;;8.10;94.80;;;;;;5012803;28;20194;-87
2021/12/20 13:09:59;;;;;;;3.67;1.95;;;8.10;94.70;;;;;;5015712;28;20224;-87